createdAt,value
2022-09-18T00:01:17.326Z,11.50
2022-09-18T00:04:21.743Z,11.50
2022-09-18T00:07:24.822Z,11.50
2022-09-18T00:10:27.963Z,11.50
2022-09-18T00:13:31.078Z,11.40
2022-09-18T00:16:34.557Z,11.40
2022-09-18T00:19:39.016Z,11.40
2022-09-18T00:22:42.098Z,11.30
2022-09-18T00:25:45.153Z,11.30
2022-09-18T00:28:48.207Z,11.30
2022-09-18T00:31:51.369Z,11.30
2022-09-18T00:34:55.897Z,11.20
2022-09-18T00:37:59.463Z,11.20
2022-09-18T00:41:03.964Z,11.10
2022-09-18T00:44:31.115Z,11.10
2022-09-18T00:47:39.333Z,11.00
2022-09-18T00:50:43.804Z,10.90
2022-09-18T00:53:55.622Z,10.90
2022-09-18T00:57:02.779Z,10.80
2022-09-18T01:00:12.204Z,10.80
2022-09-18T01:03:15.275Z,10.70
2022-09-18T01:06:30.279Z,10.70
2022-09-18T01:09:41.852Z,10.70
2022-09-18T01:12:53.301Z,10.70
2022-09-18T01:16:03.241Z,10.50
2022-09-18T01:19:16.870Z,10.40
2022-09-18T01:22:33.118Z,10.30
2022-09-18T01:25:51.358Z,10.20
2022-09-18T01:29:00.074Z,10.10
2022-09-18T01:32:07.980Z,10.20
2022-09-18T01:35:40.000Z,10.20
2022-09-18T01:38:46.626Z,10.10
2022-09-18T01:41:52.012Z,10.10
2022-09-18T01:45:00.396Z,10.10
2022-09-18T01:48:07.814Z,10.10
2022-09-18T01:51:15.398Z,10.10
2022-09-18T01:54:22.807Z,10.10
2022-09-18T01:57:29.230Z,10.20
2022-09-18T02:00:34.365Z,10.10
2022-09-18T02:03:42.359Z,10.10
2022-09-18T02:06:53.332Z,10.00
2022-09-18T02:09:58.419Z,10.00
2022-09-18T02:13:03.899Z,10.00
2022-09-18T02:16:13.459Z,10.00
2022-09-18T02:19:19.374Z,9.90
2022-09-18T02:22:25.471Z,9.80
2022-09-18T02:25:32.384Z,9.80
2022-09-18T02:28:38.062Z,9.90
2022-09-18T02:31:42.789Z,9.90
2022-09-18T02:34:46.085Z,9.80
2022-09-18T02:37:58.574Z,9.80
2022-09-18T02:41:08.683Z,9.70
2022-09-18T02:44:20.802Z,9.70
2022-09-18T02:47:35.496Z,9.70
2022-09-18T02:50:48.498Z,9.70
2022-09-18T02:53:58.313Z,9.60
2022-09-18T02:57:07.304Z,9.50
2022-09-18T03:00:17.002Z,9.50
2022-09-18T03:03:21.444Z,9.50
2022-09-18T03:06:24.516Z,9.50
2022-09-18T03:09:27.591Z,9.40
2022-09-18T03:12:30.690Z,9.40
2022-09-18T03:15:33.785Z,9.40
2022-09-18T03:18:38.251Z,9.40
2022-09-18T03:21:41.448Z,9.40
2022-09-18T03:24:44.542Z,9.40
2022-09-18T03:27:47.626Z,9.40
2022-09-18T03:30:51.008Z,9.40
2022-09-18T03:33:55.453Z,9.30
2022-09-18T03:36:58.540Z,9.20
2022-09-18T03:40:01.686Z,9.20
2022-09-18T03:43:04.950Z,9.10
2022-09-18T03:46:08.108Z,9.10
2022-09-18T03:49:12.570Z,9.20
2022-09-18T03:52:15.632Z,9.10
2022-09-18T03:55:18.836Z,9.10
2022-09-18T03:58:21.911Z,9.00
2022-09-18T04:01:25.347Z,9.10
2022-09-18T04:04:30.252Z,9.00
2022-09-18T04:07:33.339Z,9.00
2022-09-18T04:10:36.495Z,9.00
2022-09-18T04:13:39.552Z,9.00
2022-09-18T04:16:42.653Z,9.20
2022-09-18T04:19:50.172Z,9.30
2022-09-18T04:22:56.420Z,9.30
2022-09-18T04:25:59.481Z,9.30
2022-09-18T04:29:04.052Z,9.00
2022-09-18T04:32:07.695Z,9.00
2022-09-18T04:35:12.582Z,9.10
2022-09-18T04:38:15.687Z,9.20
2022-09-18T04:41:18.750Z,9.30
2022-09-18T04:44:22.038Z,9.40
2022-09-18T04:47:25.153Z,9.40
2022-09-18T04:50:29.578Z,9.50
2022-09-18T04:53:35.444Z,9.60
2022-09-18T04:56:38.551Z,9.60
2022-09-18T04:59:41.608Z,9.60
2022-09-18T05:02:44.715Z,9.60
2022-09-18T05:05:49.430Z,9.70
2022-09-18T05:08:52.489Z,9.70
2022-09-18T05:11:55.599Z,9.60
2022-09-18T05:14:58.664Z,9.50
2022-09-18T05:18:06.578Z,9.50
2022-09-18T05:21:13.686Z,9.50
2022-09-18T05:24:17.605Z,9.60
2022-09-18T05:27:23.538Z,9.60
2022-09-18T05:30:30.894Z,9.70
2022-09-18T05:33:34.198Z,9.80
2022-09-18T05:36:38.638Z,9.90
2022-09-18T05:39:42.299Z,10.10
2022-09-18T05:42:48.918Z,10.30
2022-09-18T05:45:51.967Z,10.50
2022-09-18T05:48:55.023Z,10.70
2022-09-18T05:51:59.470Z,10.90
2022-09-18T05:55:02.740Z,11.20
2022-09-18T05:58:07.655Z,11.20
2022-09-18T06:01:10.901Z,11.20
2022-09-18T06:04:14.022Z,10.90
2022-09-18T06:07:18.625Z,11.10
2022-09-18T06:10:23.131Z,11.20
2022-09-18T06:13:26.406Z,11.10
2022-09-18T06:16:29.653Z,11.00
2022-09-18T06:19:32.806Z,11.20
2022-09-18T06:22:37.744Z,11.60
2022-09-18T06:25:40.893Z,11.90
2022-09-18T06:28:44.077Z,12.30
2022-09-18T06:31:47.193Z,12.60
2022-09-18T06:34:50.297Z,13.60
2022-09-18T06:37:54.779Z,14.50
2022-09-18T06:40:57.842Z,14.90
2022-09-18T06:44:00.932Z,15.50
2022-09-18T06:47:04.186Z,17.30
2022-09-18T06:50:08.194Z,18.40
2022-09-18T06:53:12.978Z,18.30
2022-09-18T06:56:16.105Z,17.70
2022-09-18T06:59:19.284Z,18.90
2022-09-18T07:02:22.416Z,21.10
2022-09-18T07:05:26.890Z,22.90
2022-09-18T07:08:31.665Z,23.90
2022-09-18T07:11:36.364Z,24.70
2022-09-18T07:14:39.435Z,23.90
2022-09-18T07:17:42.539Z,22.20
2022-09-18T07:20:45.692Z,20.70
2022-09-18T07:23:50.096Z,19.60
2022-09-18T07:26:53.194Z,19.10
2022-09-18T07:29:57.137Z,18.90
2022-09-18T07:33:00.239Z,18.90
2022-09-18T07:36:04.167Z,19.00
2022-09-18T07:39:08.625Z,20.40
2022-09-18T07:42:12.027Z,20.20
2022-09-18T07:45:15.126Z,20.30
2022-09-18T07:48:18.325Z,19.90
2022-09-18T07:51:25.548Z,20.00
2022-09-18T07:54:31.130Z,20.80
2022-09-18T07:57:34.218Z,22.70
2022-09-18T08:00:38.255Z,24.10
2022-09-18T08:03:41.681Z,23.50
2022-09-18T08:06:46.138Z,23.20
2022-09-18T08:09:50.565Z,23.30
2022-09-18T08:12:55.201Z,24.00
2022-09-18T08:15:58.398Z,23.40
2022-09-18T08:19:01.540Z,22.90
2022-09-18T08:22:06.298Z,22.60
2022-09-18T08:25:12.130Z,22.40
2022-09-18T08:28:15.206Z,22.00
2022-09-18T08:31:18.324Z,22.40
2022-09-18T08:34:21.446Z,22.00
2022-09-18T08:37:24.591Z,21.50
2022-09-18T08:40:58.995Z,22.10
2022-09-18T08:44:07.961Z,25.60
2022-09-18T08:47:17.340Z,30.00
2022-09-18T08:50:24.945Z,34.00
2022-09-18T08:53:35.089Z,37.60
2022-09-18T08:56:40.920Z,40.60
2022-09-18T08:59:47.751Z,42.20
2022-09-18T09:02:52.471Z,43.40
2022-09-18T09:05:59.361Z,44.50
2022-09-18T09:09:21.409Z,45.00
2022-09-18T09:12:36.509Z,46.10
2022-09-18T09:15:47.257Z,47.70
2022-09-18T09:19:00.349Z,48.20
2022-09-18T09:22:09.791Z,49.20
2022-09-18T09:25:22.048Z,48.60
2022-09-18T09:28:32.368Z,48.50
2022-09-18T09:31:39.312Z,48.10
2022-09-18T09:34:47.952Z,47.50
2022-09-18T09:37:52.397Z,44.00
2022-09-18T09:40:58.035Z,41.50
2022-09-18T09:44:15.808Z,40.50
2022-09-18T09:47:30.420Z,39.20
2022-09-18T09:50:46.090Z,36.20
2022-09-18T09:53:49.594Z,33.60
2022-09-18T09:57:01.189Z,33.20
2022-09-18T10:00:14.616Z,32.20
2022-09-18T10:03:35.924Z,30.50
2022-09-18T10:06:48.426Z,28.60
2022-09-18T10:09:56.729Z,27.20
2022-09-18T10:13:04.853Z,26.20
2022-09-18T10:16:17.545Z,25.00
2022-09-18T10:19:22.824Z,23.90
2022-09-18T10:22:27.415Z,22.90
2022-09-18T10:25:37.145Z,22.50
2022-09-18T10:28:40.242Z,22.00
2022-09-18T10:31:52.586Z,21.90
2022-09-18T10:34:55.725Z,21.80
2022-09-18T10:37:59.709Z,21.70
2022-09-18T10:41:33.948Z,21.90
2022-09-18T10:44:38.689Z,22.40
2022-09-18T10:47:43.593Z,23.70
2022-09-18T10:50:54.245Z,24.50
2022-09-18T10:54:05.882Z,24.40
2022-09-18T10:57:28.238Z,24.20
2022-09-18T11:00:38.777Z,24.30
2022-09-18T11:03:46.316Z,24.50
2022-09-18T11:06:49.471Z,24.70
2022-09-18T11:09:52.772Z,25.10
2022-09-18T11:12:57.802Z,25.30
2022-09-18T11:16:03.638Z,25.20
2022-09-18T11:19:24.512Z,25.30
2022-09-18T11:22:36.510Z,25.00
2022-09-18T11:25:39.602Z,23.90
2022-09-18T11:28:42.712Z,23.70
2022-09-18T11:31:51.090Z,23.60
2022-09-18T11:34:58.570Z,23.20
2022-09-18T11:38:07.787Z,22.90
2022-09-18T11:41:13.140Z,22.50
2022-09-18T11:44:20.125Z,22.40
2022-09-18T11:47:42.621Z,21.10
2022-09-18T11:50:47.825Z,20.40
2022-09-18T11:53:56.225Z,20.30
2022-09-18T11:57:02.972Z,20.00
2022-09-18T12:00:09.626Z,19.80
2022-09-18T12:03:19.932Z,19.60
2022-09-18T12:06:30.342Z,20.00
2022-09-18T12:09:39.577Z,20.50
2022-09-18T12:12:47.455Z,20.90
2022-09-18T12:15:57.981Z,20.60
2022-09-18T12:19:05.300Z,20.10
2022-09-18T12:22:16.561Z,20.00
2022-09-18T12:25:22.006Z,20.20
2022-09-18T12:28:32.659Z,20.30
2022-09-18T12:31:43.650Z,20.50
2022-09-18T12:34:55.673Z,20.30
2022-09-18T12:38:10.688Z,20.00
2022-09-18T12:41:27.140Z,19.90
2022-09-18T12:45:06.039Z,19.90
2022-09-18T12:48:25.573Z,20.00
2022-09-18T12:51:43.158Z,20.00
2022-09-18T12:55:17.903Z,20.00
2022-09-18T12:58:38.740Z,20.00
2022-09-18T13:01:47.750Z,19.80
2022-09-18T13:04:56.019Z,19.60
2022-09-18T13:08:06.650Z,19.40
2022-09-18T13:11:18.093Z,19.30
2022-09-18T13:14:26.926Z,19.10
2022-09-18T13:17:35.114Z,19.10
2022-09-18T13:20:42.786Z,19.10
2022-09-18T13:23:47.584Z,19.20
2022-09-18T13:26:53.269Z,19.10
2022-09-18T13:29:59.208Z,19.10
2022-09-18T13:33:03.479Z,19.10
2022-09-18T13:36:07.209Z,19.10
2022-09-18T13:39:19.966Z,19.20
2022-09-18T13:42:33.052Z,19.20
2022-09-18T13:45:39.689Z,19.20
2022-09-18T13:48:46.542Z,19.10
2022-09-18T13:51:50.902Z,19.00
2022-09-18T13:55:25.382Z,19.10
2022-09-18T13:58:54.629Z,19.10
2022-09-18T14:02:02.534Z,19.10
2022-09-18T14:05:29.647Z,19.10
2022-09-18T14:08:39.520Z,19.10
2022-09-18T14:11:42.619Z,19.10
2022-09-18T14:15:02.826Z,19.10
2022-09-18T14:18:14.564Z,19.00
2022-09-18T14:21:25.334Z,19.10
2022-09-18T14:24:55.186Z,19.10
2022-09-18T14:28:03.287Z,19.10
2022-09-18T14:31:22.644Z,19.20
2022-09-18T14:34:31.360Z,19.30
2022-09-18T14:37:37.667Z,19.30
2022-09-18T14:40:41.460Z,19.30
2022-09-18T14:43:49.647Z,19.40
2022-09-18T14:46:55.746Z,19.50
2022-09-18T14:49:58.859Z,19.60
2022-09-18T14:53:03.795Z,19.70
2022-09-18T14:56:08.944Z,19.80
2022-09-18T14:59:17.946Z,19.70
2022-09-18T15:02:29.258Z,19.70
2022-09-18T15:05:33.061Z,19.60
2022-09-18T15:08:37.735Z,19.70
2022-09-18T15:12:01.269Z,19.60
2022-09-18T15:15:30.977Z,19.50
2022-09-18T15:18:43.251Z,19.50
2022-09-18T15:21:49.341Z,19.50
2022-09-18T15:24:52.817Z,19.50
2022-09-18T15:27:58.129Z,19.40
2022-09-18T15:31:04.898Z,19.40
2022-09-18T15:34:16.490Z,19.40
2022-09-18T15:37:22.092Z,19.40
2022-09-18T15:40:30.266Z,19.30
2022-09-18T15:43:43.503Z,19.20
2022-09-18T15:46:46.679Z,19.00
2022-09-18T15:49:51.665Z,19.00
2022-09-18T15:53:05.928Z,18.90
2022-09-18T15:56:20.052Z,18.90
2022-09-18T15:59:30.370Z,18.80
2022-09-18T16:02:37.592Z,18.60
2022-09-18T16:05:53.495Z,18.50
2022-09-18T16:08:57.924Z,18.40
2022-09-18T16:12:01.337Z,18.30
2022-09-18T16:15:18.034Z,18.10
2022-09-18T16:18:25.792Z,18.00
2022-09-18T16:21:30.678Z,17.90
2022-09-18T16:24:33.866Z,17.80
2022-09-18T16:27:36.955Z,17.60
2022-09-18T16:30:40.029Z,17.60
2022-09-18T16:33:57.254Z,17.60
2022-09-18T16:37:02.033Z,17.60
2022-09-18T16:40:05.663Z,17.50
2022-09-18T16:43:10.757Z,17.40
2022-09-18T16:46:15.847Z,17.40
2022-09-18T16:49:22.166Z,17.40
2022-09-18T16:52:26.734Z,17.40
2022-09-18T16:55:31.363Z,17.30
2022-09-18T16:58:36.593Z,17.20
2022-09-18T17:02:00.523Z,17.20
2022-09-18T17:05:05.568Z,17.10
2022-09-18T17:08:10.459Z,17.10
2022-09-18T17:11:14.310Z,17.00
2022-09-18T17:14:17.668Z,16.90
2022-09-18T17:17:21.346Z,16.80
2022-09-18T17:20:24.916Z,16.70
2022-09-18T17:23:30.601Z,16.70
2022-09-18T17:26:35.811Z,16.60
2022-09-18T17:29:40.278Z,16.40
2022-09-18T17:32:43.717Z,16.40
2022-09-18T17:35:47.744Z,16.40
2022-09-18T17:38:52.792Z,16.30
2022-09-18T17:41:57.567Z,16.20
2022-09-18T17:45:01.166Z,16.20
2022-09-18T17:48:04.770Z,16.20
2022-09-18T17:51:12.487Z,16.10
2022-09-18T17:54:17.534Z,16.20
2022-09-18T17:57:21.129Z,16.10
2022-09-18T18:00:25.261Z,16.10
2022-09-18T18:03:29.629Z,16.00
2022-09-18T18:06:33.121Z,15.90
2022-09-18T18:09:38.743Z,15.90
2022-09-18T18:12:41.996Z,15.90
2022-09-18T18:15:45.471Z,15.80
2022-09-18T18:18:48.732Z,15.70
2022-09-18T18:21:52.265Z,15.70
2022-09-18T18:24:56.838Z,15.70
2022-09-18T18:28:00.280Z,15.70
2022-09-18T18:31:07.478Z,15.70
2022-09-18T18:34:12.103Z,15.70
2022-09-18T18:37:15.649Z,15.70
2022-09-18T18:40:22.240Z,15.60
2022-09-18T18:43:25.733Z,15.70
2022-09-18T18:46:36.672Z,15.60
2022-09-18T18:49:40.583Z,15.50
2022-09-18T18:52:43.946Z,15.50
2022-09-18T18:55:49.584Z,15.40
2022-09-18T18:58:57.893Z,15.40
2022-09-18T19:02:02.623Z,15.40
2022-09-18T19:05:07.082Z,15.50
2022-09-18T19:08:10.285Z,15.40
2022-09-18T19:11:16.605Z,15.40
2022-09-18T19:14:22.155Z,15.40
2022-09-18T19:17:27.123Z,15.40
2022-09-18T19:20:30.649Z,15.40
2022-09-18T19:23:34.226Z,15.40
2022-09-18T19:26:40.412Z,15.40
2022-09-18T19:29:43.798Z,15.40
2022-09-18T19:32:47.413Z,15.40
2022-09-18T19:35:50.966Z,15.40
2022-09-18T19:38:54.675Z,15.30
2022-09-18T19:42:03.297Z,15.30
2022-09-18T19:45:07.460Z,15.30
2022-09-18T19:48:19.319Z,15.30
2022-09-18T19:51:22.773Z,15.20
2022-09-18T19:54:26.056Z,15.20
2022-09-18T19:57:30.900Z,15.20
2022-09-18T20:00:34.438Z,15.20
2022-09-18T20:03:37.847Z,15.10
2022-09-18T20:06:42.853Z,15.10
2022-09-18T20:09:45.991Z,15.00
2022-09-18T20:12:52.850Z,15.00
2022-09-18T20:16:00.894Z,15.00
2022-09-18T20:19:06.508Z,14.80
2022-09-18T20:22:09.605Z,14.80
2022-09-18T20:25:13.326Z,14.70
2022-09-18T20:28:17.792Z,14.60
2022-09-18T20:31:23.498Z,14.40
2022-09-18T20:34:26.854Z,14.40
2022-09-18T20:37:33.045Z,14.40
2022-09-18T20:40:38.467Z,14.50
2022-09-18T20:43:44.259Z,14.40
2022-09-18T20:46:47.508Z,14.40
2022-09-18T20:49:52.183Z,14.30
2022-09-18T20:52:55.379Z,14.30
2022-09-18T20:55:59.553Z,14.30
2022-09-18T20:59:05.072Z,14.30
2022-09-18T21:02:08.868Z,14.30
2022-09-18T21:05:14.709Z,14.30
2022-09-18T21:08:17.823Z,14.30
2022-09-18T21:11:23.355Z,14.30
2022-09-18T21:14:27.788Z,14.20
2022-09-18T21:17:31.596Z,14.20
2022-09-18T21:20:34.684Z,14.20
2022-09-18T21:23:58.487Z,14.20
2022-09-18T21:27:01.582Z,14.20
2022-09-18T21:30:07.828Z,14.20
2022-09-18T21:33:14.152Z,14.20
2022-09-18T21:36:17.253Z,14.20
2022-09-18T21:39:20.338Z,14.20
2022-09-18T21:42:23.913Z,14.20
2022-09-18T21:45:31.041Z,14.10
2022-09-18T21:48:34.838Z,14.10
2022-09-18T21:51:40.653Z,14.00
2022-09-18T21:54:43.787Z,13.90
2022-09-18T21:57:46.951Z,13.70
2022-09-18T22:00:51.440Z,13.60
2022-09-18T22:03:59.403Z,13.60
2022-09-18T22:07:04.055Z,13.60
2022-09-18T22:10:08.576Z,13.60
2022-09-18T22:13:11.719Z,13.50
2022-09-18T22:16:16.282Z,13.40
2022-09-18T22:19:19.731Z,13.40
2022-09-18T22:22:23.205Z,13.50
2022-09-18T22:25:26.275Z,13.50
2022-09-18T22:28:29.578Z,13.50
2022-09-18T22:31:34.573Z,13.50
2022-09-18T22:34:38.169Z,13.50
2022-09-18T22:37:41.294Z,13.60
2022-09-18T22:40:44.437Z,13.60
2022-09-18T22:43:47.724Z,13.70
2022-09-18T22:46:53.433Z,13.70
2022-09-18T22:49:56.611Z,13.70
2022-09-18T22:52:59.701Z,13.70
2022-09-18T22:56:04.789Z,13.70
2022-09-18T22:59:08.447Z,13.70
2022-09-18T23:02:13.049Z,13.60
2022-09-18T23:05:16.620Z,13.60
2022-09-18T23:08:19.723Z,13.60
2022-09-18T23:11:25.419Z,13.60
2022-09-18T23:14:31.235Z,13.50
2022-09-18T23:17:35.757Z,13.50
2022-09-18T23:20:38.818Z,13.40
2022-09-18T23:23:43.738Z,13.30
2022-09-18T23:26:49.052Z,13.20
2022-09-18T23:29:52.153Z,13.20
2022-09-18T23:32:56.590Z,13.10
2022-09-18T23:36:07.246Z,13.00
2022-09-18T23:39:14.526Z,13.00
2022-09-18T23:42:17.596Z,13.00
2022-09-18T23:45:20.894Z,13.00
2022-09-18T23:48:25.759Z,13.00
2022-09-18T23:51:30.169Z,13.00
2022-09-18T23:54:33.665Z,13.10
2022-09-18T23:57:37.045Z,13.10
